NEODyS-2

Near Earth Objects - Dynamic Site
NEODyS ∴ Observatories ∴ Site 691 ∴ Obs & residuals
Contact »
691  ▹ 
OBSERVATIONS AND RESIDUALS

691-Steward Observatory, Kitt Peak-Spacewatch

Detections | Residuals | Detections & Residuals

[1-200] [201-400] [401-600] [601-800] [801-1000] [1001-1200] [1201-1400] [1401-1600] [1601-1800] [1801-2000] [2001-2200] [2201-2400] [2401-2600] [2601-2800] [2801-3000] [3001-3200] [3201-3400] [3401-3600] [3601-3800] [3801-4000] [4001-4200] [4201-4400] [4401-4600] [4601-4800] [4801-5000] [5001-5200] [5201-5400] [5401-5600] [5601-5800] [5801-6000] [6001-6200] [6201-6400] [6401-6600] [6601-6800] [6801-7000] [7001-7200] [7201-7400] [7401-7600] [7601-7800] [7801-8000] [8001-8200] [8201-8400] [8401-8600] [8601-8800] [8801-9000] [9001-9200] [9201-9400] [9401-9600] [9601-9800] [9801-10000] [10001-10200] [10201-10400] [10401-10600] [10601-10800] [10801-11000] [11001-11200] [11201-11400] [11401-11600] [11601-11800] [11801-12000] [12001-12200] [12201-12400] [12401-12600] [12601-12800] [12801-13000] [13001-13200] [13201-13400] [13401-13600] [13601-13800] [13801-14000] [14001-14200] [14201-14400] [14401-14600] [14601-14800] [14801-15000] [15001-15200] [15201-15400] [15401-15600] [15601-15800] [15801-16000] [16001-16200] [16201-16400] [16401-16600] [16601-16800] [16801-17000] [17001-17200] [17201-17400] [17401-17600] [17601-17800] [17801-18000] [18001-18200] [18201-18400] [18401-18600] [18601-18800] [18801-19000] [19001-19200] [19201-19400] [19401-19600] [19601-19800] [19801-20000] [20001-20200] [20201-20400] [20401-20600] [20601-20800] [20801-21000] [21001-21200] [21201-21400] [21401-21600] [21601-21800] [21801-22000] [22001-22200] [22201-22400] [22401-22600] [22601-22800] [22801-23000] [23001-23200] [23201-23400] [23401-23600] [23601-23800] [23801-24000] [24001-24200] [24201-24400] [24401-24600] [24601-24800] [24801-25000] [25001-25200] [25201-25400] [25401-25600] [25601-25800] [25801-26000] [26001-26200] [26201-26400] [26401-26600] [26601-26800] [26801-27000] [27001-27200] [27201-27400] [27401-27600] [27601-27800] [27801-28000] [28001-28200] [28201-28400] [28401-28600] [28601-28800] [28801-29000] [29001-29200] [29201-29400] [29401-29600] [29601-29800] [29801-30000] [30001-30200] [30201-30400] [30401-30600] [30601-30800] [30801-31000] [31001-31200] [31201-31400] [31401-31600] [31601-31800] [31801-32000] [32001-32200] [32201-32400] [32401-32600] [32601-32800] [32801-33000] [33001-33200] [33201-33400] [33401-33600] [33601-33800] [33801-34000] [34001-34200] [34201-34400] [34401-34600] [34601-34800] [34801-35000] [35001-35200] [35201-35400] [35401-35600] [35601-35800] [35801-36000] [36001-36200] [36201-36400] [36401-36600] [36601-36800] [36801-37000] [37001-37200] [37201-37400] [37401-37600] [37601-37800] [37801-38000] [38001-38200] [38201-38400] [38401-38600] [38601-38800] [38801-39000] [39001-39200] [39201-39400] [39401-39600] [39601-39800] [39801-40000] [40001-40200] [40201-40400] [40401-40600] [40601-40800] [40801-41000] [41001-41200] [41201-41400] [41401-41600] [41601-41800] [41801-42000] [42001-42200] [42201-42400] [42401-42600] [42601-42800] [42801-43000] [43001-43200] [43201-43400] [43401-43600] [43601-43800] [43801-44000] [44001-44200] [44201-44400] [44401-44600] [44601-44800] [44801-45000] [45001-45200] [45201-45400] [45401-45600] [45601-45800] [45801-46000] [46001-46200] [46201-46400] [46401-46600] [46601-46800] [46801-47000] [47001-47200] [47201-47400] [47401-47600] [47601-47800] [47801-48000] [48001-48200] [48201-48400] [48401-48600] [48601-48800] [48801-49000] [49001-49200] [49201-49400] [49401-49600] [49601-49800] [49801-50000] [50001-50200] [50201-50400] [50401-50600] [50601-50741]

Designation T Tech N Date Right Ascension Declination Apparent Magnitude Star Catalog Site code χ Used A Used M
yr-mo-day precision hr:min:sec precision rms F bias residual deg min sec precision rms F bias residual mag/col rms residual
2013CT36 O C 2013-02-17.21756 1.000E-05 10:46:46.030 1.500E-01 0.500 F 0.039 0.056 +16° 15' 31.00" 1.000E-01 0.500 F 0.121 -0.127 18.9 V 0.70 0.40 o 691 0.28 Yes Yes
2013CT36 O C 2013-02-17.23527 1.000E-05 10:46:40.940 1.500E-01 0.500 F 0.039 -0.279 +16° 15' 38.60" 1.000E-01 0.500 F 0.121 -0.084 18.8 V 0.70 0.30 o 691 0.59 Yes Yes
2013CT36 O C 2013-02-17.25299 1.000E-05 10:46:35.870 1.500E-01 0.500 F 0.039 -0.198 +16° 15' 46.00" 1.000E-01 0.500 F 0.121 -0.180 18.9 V 0.70 0.40 o 691 0.54 Yes Yes
2013CN222 O C 2013-02-17.28151 1.000E-05 11:14:30.010 1.500E-01 0.500 F 0.214 0.819 +07° 40' 56.90" 1.000E-01 0.500 F 0.181 -0.080 21.4 V 0.70 0.01 o 691 1.65 Yes Yes
2013CQ35 O C 2013-02-17.28151 1.000E-05 11:11:25.250 1.500E-01 0.500 F 0.235 -0.088 +08° 38' 17.60" 1.000E-01 0.500 F 0.147 -0.102 19.8 V 0.70 -0.04 o 691 0.27 Yes Yes
2013CN222 O C 2013-02-17.29918 1.000E-05 11:14:29.130 1.500E-01 0.500 F 0.214 0.115 +07° 41' 08.60" 1.000E-01 0.500 F 0.181 -0.085 21.3 V 0.70 -0.09 o 691 0.29 Yes Yes
2013CQ35 O C 2013-02-17.29918 1.000E-05 11:11:22.450 1.500E-01 0.500 F 0.235 -0.152 +08° 38' 19.70" 1.000E-01 0.500 F 0.147 0.007 19.8 V 0.70 -0.04 o 691 0.31 Yes Yes
2013CN222 O C 2013-02-17.31685 1.000E-05 11:14:28.270 1.500E-01 0.500 F 0.214 -0.250 +07° 41' 19.80" 1.000E-01 0.500 F 0.181 -0.587 21.0 V 0.70 -0.39 o 691 1.28 Yes Yes
2013CQ35 O C 2013-02-17.31685 1.000E-05 11:11:19.630 1.500E-01 0.500 F 0.235 -0.431 +08° 38' 21.50" 1.000E-01 0.500 F 0.147 -0.160 20.0 V 0.70 0.16 o 691 0.92 Yes Yes
2007PA8 O C 2013-02-17.33747 1.000E-05 11:31:52.430 1.500E-01 0.500 F 0.143 -0.272 +04° 33' 14.20" 1.000E-01 0.500 F 0.306 0.077 16.5 V 0.70 0.09 o 691 0.57 Yes Yes
2007PA8 O C 2013-02-17.35514 1.000E-05 11:31:50.600 1.500E-01 0.500 F 0.143 -0.213 +04° 33' 28.90" 1.000E-01 0.500 F 0.306 0.033 16.5 V 0.70 0.09 o 691 0.43 Yes Yes
2007PA8 O C 2013-02-17.37280 1.000E-05 11:31:48.770 1.500E-01 0.500 F 0.143 -0.139 +04° 33' 43.70" 1.000E-01 0.500 F 0.306 0.115 16.7 V 0.70 0.29 o 691 0.36 Yes Yes
1999GT6 O C 2013-02-17.37777 1.000E-05 11:27:03.840 1.500E-01 0.500 F 0.260 -0.690 -01° 02' 55.00" 1.000E-01 0.500 F 0.027 -0.020 20.6 V 0.70 -0.48 o 691 1.39 Yes Yes
Anza O C 2013-02-17.38024 1.000E-05 11:32:19.320 1.500E-01 0.500 F 0.252 -0.451 -00° 45' 10.20" 1.000E-01 0.500 F -0.037 0.321 21.6 V 0.70 0.22 o 691 1.11 Yes Yes
1999GT6 O C 2013-02-17.39542 1.000E-05 11:27:03.030 1.500E-01 0.500 F 0.260 -0.267 -01° 02' 49.70" 1.000E-01 0.500 F 0.027 0.407 20.7 V 0.70 -0.38 o 691 0.98 Yes Yes
Anza O C 2013-02-17.39789 1.000E-05 11:32:18.420 1.500E-01 0.500 F 0.252 -0.392 -00° 45' 04.90" 1.000E-01 0.500 F -0.037 0.001 21.5 V 0.70 0.12 o 691 0.78 Yes Yes
1999GT6 O C 2013-02-17.41308 1.000E-05 11:27:02.180 1.500E-01 0.500 F 0.260 -0.435 -01° 02' 45.10" 1.000E-01 0.500 F 0.027 0.127 20.5 V 0.70 -0.58 o 691 0.91 Yes Yes
Anza O C 2013-02-17.41554 1.000E-05 11:32:17.510 1.500E-01 0.500 F 0.252 -0.483 -00° 44' 59.30" 1.000E-01 0.500 F -0.037 -0.021 21.4 V 0.70 0.02 o 691 0.97 Yes Yes
2010RK64 O C 2013-02-17.44063 1.000E-05 12:34:49.900 1.500E-01 0.500 F 0.136 -0.296 +09° 20' 44.70" 1.000E-01 0.500 F 0.199 -0.039 21.3 V 0.70 -0.50 o 691 0.63 Yes Yes
1993EA O C 2013-02-17.44572 1.000E-05 12:27:22.370 1.500E-01 0.500 F 0.201 -0.519 +06° 26' 10.20" 1.000E-01 0.500 F 0.202 -0.022 19.7 V 0.70 0.43 o 691 1.04 Yes Yes
2007EH88 O C 2013-02-17.44818 1.000E-05 12:37:07.460 1.500E-01 0.500 F 0.264 0.157 +06° 50' 52.50" 1.000E-01 0.500 F 0.153 -0.417 21.4 V 0.70 0.25 o 691 0.89 Yes Yes
2010RK64 O C 2013-02-17.45828 1.000E-05 12:34:47.660 1.500E-01 0.500 F 0.136 -0.566 +09° 20' 38.50" 1.000E-01 0.500 F 0.199 0.011 21.2 V 0.70 -0.60 o 691 1.20 Yes Yes
1993EA O C 2013-02-17.46337 1.000E-05 12:27:20.990 1.500E-01 0.500 F 0.201 -0.664 +06° 26' 23.30" 1.000E-01 0.500 F 0.202 -0.246 20.6 V 0.70 1.33 o 691 1.42 Yes Yes
2007EH88 O C 2013-02-17.46583 1.000E-05 12:37:06.030 1.500E-01 0.500 F 0.264 -0.536 +06° 50' 57.20" 1.000E-01 0.500 F 0.153 -0.150 20.9 V 0.70 -0.25 o 691 1.12 Yes Yes
2010RK64 O C 2013-02-17.47595 1.000E-05 12:34:45.440 1.500E-01 0.500 F 0.136 -0.519 +09° 20' 31.80" 1.000E-01 0.500 F 0.199 -0.407 21.8 V 0.70 0.00 o 691 1.37 Yes Yes
1993EA O C 2013-02-17.48103 1.000E-05 12:27:19.630 1.500E-01 0.500 F 0.201 -0.510 +06° 26' 36.80" 1.000E-01 0.500 F 0.202 -0.073 19.4 V 0.70 0.13 o 691 1.03 Yes Yes
2007EH88 O C 2013-02-17.48350 1.000E-05 12:37:04.650 1.500E-01 0.500 F 0.264 -0.472 +06° 51' 01.70" 1.000E-01 0.500 F 0.153 -0.077 21.0 V 0.70 -0.14 o 691 0.96 Yes Yes
1999CU3 O C 2013-02-18.39010 1.000E-05 11:41:03.860 1.500E-01 0.500 F 0.284 -0.568 +01° 33' 48.50" 1.000E-01 0.500 F 0.180 -0.606 17.8 V 0.70 -0.06 o 691 1.66 Yes Yes
1999CU3 O C 2013-02-18.40777 1.000E-05 11:41:02.440 1.500E-01 0.500 F 0.284 -0.234 +01° 33' 44.60" 1.000E-01 0.500 F 0.180 0.114 18.1 V 0.70 0.24 o 691 0.52 Yes Yes
1999CU3 O C 2013-02-18.42542 1.000E-05 11:41:01.000 1.500E-01 0.500 F 0.284 -0.224 +01° 33' 39.90" 1.000E-01 0.500 F 0.180 0.031 18.0 V 0.70 0.14 o 691 0.45 Yes Yes
2013CX129 O C 2013-02-18.44150 1.000E-05 11:47:31.030 1.500E-01 0.500 F 0.243 -0.169 -02° 52' 57.30" 1.000E-01 0.500 F 0.152 0.354 o 691 0.79 Yes No
2000NF5 O C 2013-02-18.44643 1.000E-05 12:05:25.400 1.500E-01 0.500 F 0.234 0.022 -02° 45' 22.60" 1.000E-01 0.500 F 0.140 -0.042 o 691 0.10 Yes No
2013CX129 O C 2013-02-18.45915 1.000E-05 11:47:31.240 1.500E-01 0.500 F 0.243 -0.062 -02° 52' 04.40" 1.000E-01 0.500 F 0.152 0.495 o 691 1.00 Yes No
2000NF5 O C 2013-02-18.46408 1.000E-05 12:05:24.710 1.500E-01 0.500 F 0.234 -0.432 -02° 45' 19.60" 1.000E-01 0.500 F 0.140 0.000 o 691 0.87 Yes No
2013CX129 O C 2013-02-18.47682 1.000E-05 11:47:31.420 1.500E-01 0.500 F 0.243 -0.484 -02° 51' 11.80" 1.000E-01 0.500 F 0.152 0.260 o 691 1.10 Yes No
2000NF5 O C 2013-02-18.48175 1.000E-05 12:05:24.050 1.500E-01 0.500 F 0.234 -0.442 -02° 45' 16.50" 1.000E-01 0.500 F 0.140 0.131 o 691 0.92 Yes No
2005EA60 O C 2013-02-19.21600 1.000E-05 10:35:28.880 1.500E-01 0.500 F 0.183 -0.800 +09° 07' 02.00" 1.000E-01 0.500 F 0.251 -0.387 o 691 1.78 Yes No
2005EA60 O C 2013-02-19.23387 1.000E-05 10:35:27.800 1.500E-01 0.500 F 0.183 -0.436 +09° 07' 04.70" 1.000E-01 0.500 F 0.251 0.173 o 691 0.94 Yes No
2005EA60 O C 2013-02-19.24919 1.000E-05 10:35:26.850 1.500E-01 0.500 F 0.183 -0.389 +09° 07' 06.10" 1.000E-01 0.500 F 0.251 -0.243 o 691 0.92 Yes No
2001FC7 O C 2013-02-19.37394 1.000E-05 11:55:08.470 1.500E-01 0.500 F 0.198 -0.226 +06° 42' 50.90" 1.000E-01 0.500 F 0.198 0.038 o 691 0.46 Yes No
2001FC7 O C 2013-02-19.39197 1.000E-05 11:55:07.350 1.500E-01 0.500 F 0.198 -0.407 +06° 43' 02.00" 1.000E-01 0.500 F 0.198 0.072 o 691 0.83 Yes No
2001FC7 O C 2013-02-19.40983 1.000E-05 11:55:06.280 1.500E-01 0.500 F 0.198 0.015 +06° 43' 12.60" 1.000E-01 0.500 F 0.198 -0.278 o 691 0.56 Yes No
2004XN50 O C 2013-03-02.21449 1.000E-05 11:28:00.650 1.500E-01 0.500 F 0.232 0.014 +10° 13' 21.60" 1.000E-01 0.500 F 0.047 -0.178 20.9 V 0.70 -0.04 o 691 0.36 Yes Yes
2004XN50 O C 2013-03-02.23220 1.000E-05 11:27:58.500 1.500E-01 0.500 F 0.232 -0.917 +10° 13' 36.70" 1.000E-01 0.500 F 0.047 -0.247 20.4 V 0.70 -0.54 o 691 1.94 Yes Yes
2004XN50 O C 2013-03-02.24992 1.000E-05 11:27:56.460 1.500E-01 0.500 F 0.232 -0.138 +10° 13' 52.10" 1.000E-01 0.500 F 0.047 -0.017 21.2 V 0.70 0.26 o 691 0.28 Yes Yes
2013CX129 O C 2013-03-02.27023 1.000E-05 11:48:33.340 1.500E-01 0.500 F 0.228 0.016 +07° 00' 35.80" 1.000E-01 0.500 F 0.244 0.012 20.4 V 0.70 0.65 o 691 0.04 Yes Yes
2013CX129 O C 2013-03-02.28790 1.000E-05 11:48:33.110 1.500E-01 0.500 F 0.228 -0.353 +07° 01' 27.50" 1.000E-01 0.500 F 0.244 -0.027 20.0 V 0.70 0.25 o 691 0.71 Yes Yes
2013CX129 O C 2013-03-02.30557 1.000E-05 11:48:32.910 1.500E-01 0.500 F 0.228 -0.185 +07° 02' 19.10" 1.000E-01 0.500 F 0.244 -0.134 20.2 V 0.70 0.45 o 691 0.46 Yes Yes
2001FC7 O C 2013-03-03.21651 1.000E-05 11:40:57.450 1.500E-01 0.500 F 0.112 -0.207 +08° 56' 14.90" 1.000E-01 0.500 F 0.092 0.088 o 691 0.45 Yes No
2001FC7 O C 2013-03-03.23421 1.000E-05 11:40:55.870 1.500E-01 0.500 F 0.112 -0.369 +08° 56' 27.60" 1.000E-01 0.500 F 0.092 0.021 o 691 0.74 Yes No
2001FC7 O C 2013-03-03.25190 1.000E-05 11:40:54.300 1.500E-01 0.500 F 0.112 -0.288 +08° 56' 40.60" 1.000E-01 0.500 F 0.092 0.278 o 691 0.80 Yes No
2009RB4 O C 2013-03-03.27313 1.000E-05 12:23:42.210 1.500E-01 0.500 F 0.217 0.071 -08° 17' 37.00" 1.000E-01 0.500 F -0.076 -0.185 o 691 0.40 Yes No
2009RB4 O C 2013-03-03.29078 1.000E-05 12:23:42.140 1.500E-01 0.500 F 0.217 -0.169 -08° 17' 22.90" 1.000E-01 0.500 F -0.076 0.363 o 691 0.80 Yes No
2009RB4 O C 2013-03-03.30843 1.000E-05 12:23:42.080 1.500E-01 0.500 F 0.217 -0.153 -08° 17' 09.70" 1.000E-01 0.500 F -0.076 -0.025 o 691 0.31 Yes No
2009UM3 O C 2013-03-12.19714 1.000E-05 11:58:26.180 1.500E-01 0.500 F 0.154 -0.322 +08° 04' 42.10" 1.000E-01 0.500 F 0.004 0.025 17.5 V 0.70 -0.08 o 691 0.65 Yes Yes
2009UM3 O C 2013-03-12.21477 1.000E-05 11:58:24.240 1.500E-01 0.500 F 0.154 -0.315 +08° 05' 25.60" 1.000E-01 0.500 F 0.004 0.114 17.4 V 0.70 -0.18 o 691 0.67 Yes Yes
2009UM3 O C 2013-03-12.23240 1.000E-05 11:58:22.290 1.500E-01 0.500 F 0.154 -0.283 +08° 06' 09.00" 1.000E-01 0.500 F 0.004 0.081 17.5 V 0.70 -0.08 o 691 0.59 Yes Yes
2013EK89 O C 2013-03-12.26602 1.000E-05 13:03:45.790 1.500E-01 0.500 F 0.263 -0.216 -08° 18' 12.20" 1.000E-01 0.500 F 0.043 0.170 20.6 V 0.70 0.22 o 691 0.55 Yes Yes
2013EK89 O C 2013-03-12.28367 1.000E-05 13:03:47.220 1.500E-01 0.500 F 0.263 -0.339 -08° 17' 26.70" 1.000E-01 0.500 F 0.043 0.124 20.1 V 0.70 -0.28 o 691 0.73 Yes Yes
2013EK89 O C 2013-03-12.30130 1.000E-05 13:03:48.660 1.500E-01 0.500 F 0.263 -0.080 -08° 16' 41.70" 1.000E-01 0.500 F 0.043 -0.404 20.4 V 0.70 0.02 o 691 0.83 Yes Yes
1996HW1 O C 2013-03-13.20637 1.000E-05 12:13:00.930 1.500E-01 0.500 F 0.230 -0.300 -00° 47' 43.70" 1.000E-01 0.500 F 0.230 -0.122 20.1 V 0.70 0.69 o 691 0.65 Yes Yes
1996HW1 O C 2013-03-13.22401 1.000E-05 12:12:59.890 1.500E-01 0.500 F 0.230 -0.207 -00° 47' 34.70" 1.000E-01 0.500 F 0.230 -0.041 19.8 V 0.70 0.39 o 691 0.42 Yes Yes
1996HW1 O C 2013-03-13.24164 1.000E-05 12:12:58.840 1.500E-01 0.500 F 0.230 -0.237 -00° 47' 25.80" 1.000E-01 0.500 F 0.230 -0.057 19.6 V 0.70 0.19 o 691 0.49 Yes Yes
Albert O C 2013-03-13.26151 1.000E-05 12:50:06.340 1.500E-01 0.500 F 0.185 -0.434 -04° 18' 30.50" 1.000E-01 0.500 F 0.177 0.106 20.8 V 0.70 -0.02 o 691 0.89 Yes Yes
2013ER89 O C 2013-03-13.26397 1.000E-05 13:00:32.360 1.500E-01 0.500 F 0.231 -0.511 -03° 42' 55.90" 1.000E-01 0.500 F 0.124 -0.286 20.0 V 0.70 0.02 o 691 1.19 Yes Yes
Albert O C 2013-03-13.27914 1.000E-05 12:50:05.570 1.500E-01 0.500 F 0.185 -0.396 -04° 18' 23.70" 1.000E-01 0.500 F 0.177 0.034 21.3 V 0.70 0.48 o 691 0.80 Yes Yes
2013ER89 O C 2013-03-13.28161 1.000E-05 13:00:29.940 1.500E-01 0.500 F 0.231 -0.374 -03° 43' 33.40" 1.000E-01 0.500 F 0.124 -0.647 19.9 V 0.70 -0.07 o 691 1.52 Yes Yes
Albert O C 2013-03-13.29703 1.000E-05 12:50:04.800 1.500E-01 0.500 F 0.185 -0.165 -04° 18' 16.60" 1.000E-01 0.500 F 0.177 0.157 21.3 V 0.70 0.48 o 691 0.46 Yes Yes
2013ER89 O C 2013-03-13.29950 1.000E-05 13:00:27.450 1.500E-01 0.500 F 0.231 -0.599 -03° 44' 08.10" 1.000E-01 0.500 F 0.124 2.338 19.4 V 0.70 -0.57 o 691 4.78 No Yes
2007PA8 O C 2013-03-14.15231 1.000E-05 10:57:55.760 1.500E-01 0.500 F 0.220 -0.202 +08° 57' 22.40" 1.000E-01 0.500 F -0.041 0.112 17.3 V 0.70 0.17 o 691 0.46 Yes Yes
2007PA8 O C 2013-03-14.16521 1.000E-05 10:57:54.990 1.500E-01 0.500 F 0.220 -0.170 +08° 57' 27.60" 1.000E-01 0.500 F -0.041 0.103 17.3 V 0.70 0.16 o 691 0.40 Yes Yes
2007PA8 O C 2013-03-14.17812 1.000E-05 10:57:54.210 1.500E-01 0.500 F 0.220 -0.232 +08° 57' 32.80" 1.000E-01 0.500 F -0.041 0.102 17.3 V 0.70 0.16 o 691 0.51 Yes Yes
2013ES O C 2013-03-14.41818 1.000E-05 14:09:33.250 1.500E-01 0.500 F 0.280 -0.445 -06° 31' 03.30" 1.000E-01 0.500 F 0.121 -0.037 20.7 V 0.70 -0.49 o 691 1.04 Yes Yes
2013ES O C 2013-03-14.43605 1.000E-05 14:09:39.010 1.500E-01 0.500 F 0.280 -1.199 -06° 30' 44.80" 1.000E-01 0.500 F 0.121 0.262 20.5 V 0.70 -0.69 o 691 2.85 Yes Yes
2013ES O C 2013-03-14.45396 1.000E-05 14:09:44.940 1.500E-01 0.500 F 0.280 0.495 -06° 30' 26.80" 1.000E-01 0.500 F 0.121 -0.109 20.6 V 0.70 -0.59 o 691 1.17 Yes Yes
2013EO126 O C 2013-03-15.31422 1.000E-05 13:08:13.830 1.500E-01 0.500 F 0.128 -0.473 -02° 46' 06.60" 1.000E-01 0.500 F 0.153 -0.028 20.0 V 0.70 0.06 o 691 0.95 Yes Yes
1999GR6 O C 2013-03-15.32942 1.000E-05 13:23:14.210 1.500E-01 0.500 F 0.201 -0.078 -04° 25' 30.20" 1.000E-01 0.500 F 0.025 -0.288 20.3 V 0.70 0.14 o 691 0.61 Yes Yes
2013EO126 O C 2013-03-15.33210 1.000E-05 13:08:13.080 1.500E-01 0.500 F 0.128 -0.191 -02° 45' 51.30" 1.000E-01 0.500 F 0.153 -0.207 20.0 V 0.70 0.06 o 691 0.57 Yes Yes
1999GR6 O C 2013-03-15.34730 1.000E-05 13:23:12.800 1.500E-01 0.500 F 0.201 -0.169 -04° 24' 41.30" 1.000E-01 0.500 F 0.025 0.144 20.4 V 0.70 0.24 o 691 0.45 Yes Yes
2013EO126 O C 2013-03-15.34998 1.000E-05 13:08:12.300 1.500E-01 0.500 F 0.128 -0.279 -02° 45' 35.70" 1.000E-01 0.500 F 0.153 -0.117 20.1 V 0.70 0.17 o 691 0.61 Yes Yes
1999GR6 O C 2013-03-15.36518 1.000E-05 13:23:11.390 1.500E-01 0.500 F 0.201 -0.178 -04° 23' 52.70" 1.000E-01 0.500 F 0.025 0.206 20.4 V 0.70 0.24 o 691 0.55 Yes Yes
2003GW O C 2013-03-15.38298 1.000E-05 13:36:41.480 1.500E-01 0.500 F 0.174 -0.155 -06° 58' 22.40" 1.000E-01 0.500 F -0.020 -0.003 16.9 V 0.70 0.10 o 691 0.31 Yes Yes
2003GW O C 2013-03-15.40085 1.000E-05 13:36:41.900 1.500E-01 0.500 F 0.156 -0.172 -06° 56' 43.80" 1.000E-01 0.500 F -0.017 -0.023 16.9 V 0.70 0.10 o 691 0.35 Yes Yes
2003GW O C 2013-03-15.41872 1.000E-05 13:36:42.320 1.500E-01 0.500 F 0.156 -0.205 -06° 55' 05.00" 1.000E-01 0.500 F -0.017 0.038 16.9 V 0.70 0.10 o 691 0.42 Yes Yes
2012QC8 O C 2013-03-15.43979 1.000E-05 14:02:52.750 1.500E-01 0.500 F 0.279 -0.414 -10° 48' 07.50" 1.000E-01 0.500 F 0.083 -0.288 20.6 V 0.70 -0.33 o 691 1.01 Yes Yes
2012QC8 O C 2013-03-15.45768 1.000E-05 14:02:51.100 1.500E-01 0.500 F 0.279 -0.182 -10° 48' 01.60" 1.000E-01 0.500 F 0.083 -0.555 20.7 V 0.70 -0.23 o 691 1.17 Yes Yes
2012QC8 O C 2013-03-15.47557 1.000E-05 14:02:49.490 1.500E-01 0.500 F 0.279 0.625 -10° 47' 55.00" 1.000E-01 0.500 F 0.083 -0.139 20.3 V 0.70 -0.63 o 691 1.29 Yes Yes
Miwablock O C 2013-03-16.43921 1.000E-05 14:08:35.310 1.500E-01 0.500 F 0.153 -0.695 -04° 19' 21.00" 1.000E-01 0.500 F 0.059 0.393 o 691 1.60 Yes No
Miwablock O C 2013-03-16.45708 1.000E-05 14:08:34.670 1.500E-01 0.500 F 0.153 -0.461 -04° 19' 16.60" 1.000E-01 0.500 F 0.059 -0.318 o 691 1.12 Yes No
Miwablock O C 2013-03-16.47496 1.000E-05 14:08:34.030 1.500E-01 0.500 F 0.153 -0.225 -04° 19' 11.10" 1.000E-01 0.500 F 0.059 0.063 o 691 0.47 Yes No
2013EV89 O C 2013-03-17.31807 1.000E-05 13:24:58.150 1.500E-01 0.500 F 0.388 -0.124 +00° 34' 01.50" 1.000E-01 0.500 F 0.150 -0.091 19.8 V 0.70 -0.02 o 691 0.31 Yes Yes
2013EV89 O C 2013-03-17.33593 1.000E-05 13:24:56.850 1.500E-01 0.500 F 0.388 -0.254 +00° 33' 33.50" 1.000E-01 0.500 F 0.150 0.241 19.8 V 0.70 -0.01 o 691 0.70 Yes Yes
2013EV89 O C 2013-03-17.35381 1.000E-05 13:24:55.550 1.500E-01 0.500 F 0.388 -0.286 +00° 33' 04.70" 1.000E-01 0.500 F 0.150 -0.172 19.8 V 0.70 -0.01 o 691 0.67 Yes Yes
2003GW O C 2013-03-18.37143 1.000E-05 13:38:06.580 1.500E-01 0.500 F 0.213 0.012 -02° 00' 52.30" 1.000E-01 0.500 F 0.048 -0.029 16.6 V 0.70 0.06 o 691 0.06 Yes Yes
2003GW O C 2013-03-18.38931 1.000E-05 13:38:06.900 1.500E-01 0.500 F 0.213 -0.201 -01° 58' 56.50" 1.000E-01 0.500 F 0.048 0.574 17.7 V 0.70 1.16 o 691 1.23 Yes Yes
2003GW O C 2013-03-18.40720 1.000E-05 13:38:07.240 1.500E-01 0.500 F 0.213 -0.107 -01° 57' 01.70" 1.000E-01 0.500 F 0.048 0.004 16.7 V 0.70 0.16 o 691 0.22 Yes Yes
2013FZ7 O C 2013-03-18.42960 1.000E-05 13:50:45.560 1.500E-01 0.500 F 0.193 0.320 -05° 46' 24.20" 1.000E-01 0.500 F 0.058 -0.065 20.5 V 0.70 -0.34 o 691 0.66 Yes Yes
2013FA8 O C t 2013-03-18.43208 1.000E-05 14:01:29.530 1.500E-01 0.500 F 0.209 -0.145 -05° 42' 51.20" 1.000E-01 0.500 F 0.022 0.088 18.5 V 0.70 0.10 o 691 0.35 Yes Yes
2006FJ9 O C 2013-03-18.43971 1.000E-05 14:01:16.720 1.500E-01 0.500 F 0.295 -0.090 -07° 34' 57.10" 1.000E-01 0.500 F 0.102 -0.053 19.6 V 0.70 -0.04 o 691 0.21 Yes Yes
2013FZ7 O C 2013-03-18.44748 1.000E-05 13:50:42.920 1.500E-01 0.500 F 0.193 -0.395 -05° 46' 37.90" 1.000E-01 0.500 F 0.058 0.230 20.5 V 0.70 -0.34 o 691 0.92 Yes Yes
2013FA8 O C t 2013-03-18.44996 1.000E-05 14:01:20.220 1.500E-01 0.500 F 0.209 -0.125 -05° 41' 58.80" 1.000E-01 0.500 F 0.022 -0.094 18.4 V 0.70 0.00 o 691 0.32 Yes Yes
2006FJ9 O C 2013-03-18.45759 1.000E-05 14:01:17.360 1.500E-01 0.500 F 0.295 -0.284 -07° 34' 49.50" 1.000E-01 0.500 F 0.102 -0.104 19.5 V 0.70 -0.14 o 691 0.61 Yes Yes
2013FZ7 O C 2013-03-18.46537 1.000E-05 13:50:40.340 1.500E-01 0.500 F 0.193 -0.271 -05° 46' 51.90" 1.000E-01 0.500 F 0.058 0.199 20.5 V 0.70 -0.33 o 691 0.68 Yes Yes
2013FA8 O C t 2013-03-18.46784 1.000E-05 14:01:10.920 1.500E-01 0.500 F 0.209 -0.366 -05° 41' 06.10" 1.000E-01 0.500 F 0.022 0.048 18.5 V 0.70 0.10 o 691 0.76 Yes Yes
2006FJ9 O C 2013-03-18.47548 1.000E-05 14:01:18.010 1.500E-01 0.500 F 0.295 -0.386 -07° 34' 41.90" 1.000E-01 0.500 F 0.102 -0.191 19.6 V 0.70 -0.04 o 691 0.86 Yes Yes
2013EV89 O C 2013-03-23.31294 1.000E-05 13:16:41.340 1.500E-01 0.500 F 0.136 -0.237 -02° 26' 15.40" 1.000E-01 0.500 F 0.135 -0.019 19.4 V 0.70 0.09 o 691 0.48 Yes Yes
Cuyo O C 2013-03-23.31812 1.000E-05 13:05:10.080 1.500E-01 0.500 F 0.168 -0.693 -04° 12' 34.30" 1.000E-01 0.500 F 0.102 0.106 19.2 V 0.70 0.26 o 691 1.40 Yes Yes
2013EV89 O C 2013-03-23.33059 1.000E-05 13:16:39.540 1.500E-01 0.500 F 0.136 0.919 -02° 26' 51.60" 1.000E-01 0.500 F 0.135 -0.147 19.6 V 0.70 0.29 o 691 1.87 Yes Yes
Cuyo O C 2013-03-23.33577 1.000E-05 13:05:09.110 1.500E-01 0.500 F 0.168 -0.650 -04° 12' 23.70" 1.000E-01 0.500 F 0.102 -0.374 19.5 V 0.70 0.56 o 691 1.50 Yes Yes
2013EV89 O C 2013-03-23.34824 1.000E-05 13:16:37.620 1.500E-01 0.500 F 0.136 0.343 -02° 27' 28.70" 1.000E-01 0.500 F 0.135 -1.156 19.1 V 0.70 -0.21 o 691 2.43 Yes Yes
Cuyo O C 2013-03-23.35341 1.000E-05 13:05:08.180 1.500E-01 0.500 F 0.168 -0.010 -04° 12' 12.10" 1.000E-01 0.500 F 0.102 0.147 19.7 V 0.70 0.76 o 691 0.30 Yes Yes
2010CR1 O C t 2013-03-31.14225 1.000E-05 04:31:36.740 1.500E-01 0.500 F -0.138 0.415 +19° 17' 40.30" 1.000E-01 0.500 F 0.178 -0.239 21.0 V 0.70 0.67 o 691 0.98 Yes Yes
2010CR1 O C t 2013-03-31.14515 1.000E-05 04:31:38.110 1.500E-01 0.500 F -0.138 0.596 +19° 17' 38.10" 1.000E-01 0.500 F 0.178 -0.522 20.8 V 0.70 0.47 o 691 1.61 Yes Yes
2010CR1 O C t 2013-03-31.14818 1.000E-05 04:31:39.450 1.500E-01 0.500 F -0.138 -0.512 +19° 17' 36.20" 1.000E-01 0.500 F 0.178 -0.419 20.5 V 0.70 0.17 o 691 1.34 Yes Yes
2013EH89 O C t 2013-03-31.17850 1.000E-05 08:53:28.630 1.500E-01 0.612 F 0.038 0.280 -02° 37' 50.10" 1.000E-01 0.612 F 0.108 -0.525 21.1 V 0.70 0.15 o 691 0.97 Yes Yes
2013EH89 O C t 2013-03-31.18301 1.000E-05 08:53:29.210 1.500E-01 0.612 F 0.038 0.709 -02° 37' 47.30" 1.000E-01 0.612 F 0.108 -0.507 o 691 1.43 Yes No
2013EH89 O C t 2013-03-31.18778 1.000E-05 08:53:29.770 1.500E-01 0.612 F 0.038 0.361 -02° 37' 44.30" 1.000E-01 0.612 F 0.108 -0.449 21.1 V 0.70 0.15 o 691 0.95 Yes Yes
2013EH89 O C 2013-03-31.20097 1.000E-05 08:53:31.350 1.500E-01 0.612 F 0.038 -0.143 -02° 37' 35.80" 1.000E-01 0.612 F 0.108 -0.086 20.9 V 0.70 -0.05 o 691 0.27 Yes Yes
2013EH89 O C 2013-03-31.20561 1.000E-05 08:53:31.930 1.500E-01 0.612 F 0.038 0.037 -02° 37' 32.60" 1.000E-01 0.612 F 0.108 0.251 20.9 V 0.70 -0.05 o 691 0.42 Yes Yes
2013EH89 O C 2013-03-31.21029 1.000E-05 08:53:32.530 1.500E-01 0.612 F 0.038 0.439 -02° 37' 30.00" 1.000E-01 0.612 F 0.108 -0.036 20.6 V 0.70 -0.35 o 691 0.72 Yes Yes
2013DZ O C H 2013-03-31.22084 1.000E-05 11:20:11.060 1.500E-01 0.500 F 0.111 -0.147 -09° 11' 06.20" 1.000E-01 0.500 F -0.033 -0.246 o 691 0.59 Yes No
2013DZ O C H 2013-03-31.22570 1.000E-05 11:20:11.810 1.500E-01 0.500 F 0.111 0.548 -09° 11' 08.60" 1.000E-01 0.500 F -0.033 -0.450 o 691 1.47 Yes No
2013DZ O C H 2013-03-31.23020 1.000E-05 11:20:12.470 1.500E-01 0.500 F 0.111 0.687 -09° 11' 10.90" 1.000E-01 0.500 F -0.033 -0.721 o 691 2.06 Yes No
2013FA8 O C 2013-03-31.25950 1.000E-05 12:57:01.090 1.500E-01 0.500 F 0.303 -0.383 +00° 32' 34.20" 1.000E-01 0.500 F 0.319 -0.170 19.5 V 0.70 0.44 o 691 0.84 Yes Yes
2013FA8 O C 2013-03-31.26449 1.000E-05 12:57:00.170 1.500E-01 0.500 F 0.303 -0.335 +00° 32' 39.20" 1.000E-01 0.500 F 0.319 0.056 19.5 V 0.70 0.44 o 691 0.69 Yes Yes
2013FA8 O C 2013-03-31.26805 1.000E-05 12:56:59.500 1.500E-01 0.500 F 0.303 -0.502 +00° 32' 42.30" 1.000E-01 0.500 F 0.319 -0.249 19.6 V 0.70 0.54 o 691 1.13 Yes Yes
2013ER89 O C 2013-03-31.34701 1.000E-05 11:44:21.340 1.500E-01 0.500 F 0.102 -0.513 -20° 07' 44.10" 1.000E-01 0.500 F -0.095 0.005 18.9 V 0.70 0.18 o 691 1.05 Yes Yes
2013ER89 O C 2013-03-31.34982 1.000E-05 11:44:20.150 1.500E-01 0.500 F 0.102 -0.404 -20° 07' 56.90" 1.000E-01 0.500 F -0.095 -0.190 19.0 V 0.70 0.28 o 691 0.92 Yes Yes
2013ER89 O C 2013-03-31.35267 1.000E-05 11:44:18.930 1.500E-01 0.500 F 0.102 -0.479 -20° 08' 09.70" 1.000E-01 0.500 F -0.095 -0.208 19.0 V 0.70 0.28 o 691 1.07 Yes Yes
2013ES89 O C 2013-03-31.36138 1.000E-05 12:18:17.010 1.500E-01 0.500 F 0.183 -0.153 -21° 21' 25.60" 1.000E-01 0.500 F -0.072 -0.192 19.0 V 0.70 0.08 o 691 0.49 Yes Yes
2013ES89 O C 2013-03-31.36626 1.000E-05 12:18:16.500 1.500E-01 0.500 F 0.183 -0.995 -21° 21' 32.50" 1.000E-01 0.500 F -0.072 -0.430 18.6 V 0.70 -0.32 o 691 2.19 Yes Yes
2013ES89 O C 2013-03-31.37111 1.000E-05 12:18:16.220 1.500E-01 0.500 F 0.183 1.332 -21° 21' 36.70" 1.000E-01 0.500 F -0.072 1.985 18.6 V 0.70 -0.32 o 691 4.74 No Yes
2013FQ10 O C t 2013-03-31.38194 1.000E-05 11:58:11.580 1.500E-01 0.500 F 0.085 0.863 -01° 05' 27.80" 1.000E-01 0.500 F 0.182 -1.935 o 691 4.16 No No
2013FQ10 O C t 2013-03-31.38492 1.000E-05 11:58:11.080 1.500E-01 0.500 F 0.085 0.582 -01° 04' 59.60" 1.000E-01 0.500 F 0.182 -0.761 20.0 V 0.70 1.20 o 691 1.95 Yes Yes
2013FQ10 O C t 2013-03-31.38782 1.000E-05 11:58:10.590 1.500E-01 0.500 F 0.085 0.244 -01° 04' 33.50" 1.000E-01 0.500 F 0.182 -0.960 20.5 V 0.70 1.70 o 691 2.02 Yes Yes
2013FZ7 O C 2013-03-31.40140 1.000E-05 12:50:48.540 1.500E-01 0.500 F 0.319 0.122 -10° 23' 59.00" 1.000E-01 0.500 F 0.032 0.194 19.2 V 0.70 0.48 o 691 0.46 Yes Yes
2013FZ7 O C 2013-03-31.40419 1.000E-05 12:50:47.010 1.500E-01 0.500 F 0.319 -0.016 -10° 24' 04.80" 1.000E-01 0.500 F 0.032 -0.078 19.3 V 0.70 0.58 o 691 0.16 Yes Yes
2013FZ7 O C 2013-03-31.40706 1.000E-05 12:50:45.400 1.500E-01 0.500 F 0.319 -0.696 -10° 24' 10.60" 1.000E-01 0.500 F 0.032 -0.195 19.0 V 0.70 0.28 o 691 1.46 Yes Yes
2013FX13 O C t 2013-03-31.45120 1.000E-05 13:38:39.110 1.500E-01 0.500 F 0.105 0.202 +34° 33' 51.60" 1.000E-01 0.500 F 0.214 -0.479 20.5 V 0.70 0.54 o 691 1.07 Yes Yes
2013FX13 O C t 2013-03-31.45414 1.000E-05 13:38:37.400 1.500E-01 0.500 F 0.105 0.197 +34° 33' 38.00" 1.000E-01 0.500 F 0.214 -1.083 20.2 V 0.70 0.24 o 691 2.27 Yes Yes
2009JR5 O C H 2013-04-01.15481 1.000E-05 07:36:47.190 1.500E-01 0.500 F -0.126 0.409 +29° 50' 20.20" 1.000E-01 0.500 F 0.215 0.195 21.4 V 0.70 0.71 o 691 0.95 Yes Yes
2009JR5 O C H 2013-04-01.15837 1.000E-05 07:36:48.560 1.500E-01 0.500 F -0.126 0.360 +29° 50' 17.10" 1.000E-01 0.500 F 0.215 -0.269 20.8 V 0.70 0.11 o 691 0.94 Yes Yes
2009JR5 O C H 2013-04-01.16127 1.000E-05 07:36:49.590 1.500E-01 0.500 F -0.126 -0.799 +29° 50' 15.70" 1.000E-01 0.500 F 0.215 0.482 21.0 V 0.70 0.31 o 691 1.95 Yes Yes
2013GF O C t 2013-04-01.22926 1.000E-05 09:11:01.370 1.500E-01 0.559 F -0.086 0.441 +32° 55' 54.60" 1.000E-01 0.559 F 0.331 -0.562 20.5 V 0.70 0.25 o 691 1.30 Yes Yes
2013GF O C t 2013-04-01.23711 1.000E-05 09:11:00.640 1.500E-01 0.559 F -0.086 0.386 +32° 55' 33.60" 1.000E-01 0.559 F 0.331 -1.156 20.4 V 0.70 0.15 o 691 2.22 Yes Yes
2013GF O C 2013-04-01.24751 1.000E-05 09:10:59.620 1.500E-01 0.559 F -0.086 -0.413 +32° 55' 07.50" 1.000E-01 0.559 F 0.331 -0.151 20.1 V 0.70 -0.15 o 691 0.80 Yes Yes
2013GF O C 2013-04-01.25157 1.000E-05 09:10:59.280 1.500E-01 0.559 F -0.086 -0.013 +32° 54' 57.00" 1.000E-01 0.559 F 0.331 -0.048 20.2 V 0.70 -0.05 o 691 0.09 Yes Yes
2013GF O C 2013-04-01.25564 1.000E-05 09:10:58.910 1.500E-01 0.559 F -0.086 0.009 +32° 54' 45.70" 1.000E-01 0.559 F 0.331 -0.707 20.5 V 0.70 0.25 o 691 1.28 Yes Yes
2013EL28 O C 2013-04-01.28919 1.000E-05 13:24:33.250 1.500E-01 0.500 F 0.148 -0.066 +27° 54' 44.20" 1.000E-01 0.500 F 0.177 -0.263 20.0 V 0.70 -0.15 o 691 0.56 Yes Yes
2013EL28 O C 2013-04-01.29448 1.000E-05 13:24:33.770 1.500E-01 0.500 F 0.148 -0.054 +27° 54' 38.50" 1.000E-01 0.500 F 0.177 -0.298 20.3 V 0.70 0.15 o 691 0.63 Yes Yes
2013EL28 O C 2013-04-01.29948 1.000E-05 13:24:34.240 1.500E-01 0.500 F 0.148 -0.315 +27° 54' 33.50" 1.000E-01 0.500 F 0.177 0.079 20.2 V 0.70 0.05 o 691 0.66 Yes Yes
2013EO126 O C 2013-04-01.35063 1.000E-05 12:38:41.200 1.500E-01 0.500 F 0.292 -0.440 +06° 05' 54.50" 1.000E-01 0.500 F 0.097 -0.031 18.0 V 0.70 0.27 o 691 0.89 Yes Yes
2013EO126 O C 2013-04-01.35348 1.000E-05 12:38:40.530 1.500E-01 0.500 F 0.292 -0.273 +06° 06' 05.10" 1.000E-01 0.500 F 0.097 -0.021 18.0 V 0.70 0.27 o 691 0.55 Yes Yes
2013EO126 O C 2013-04-01.35637 1.000E-05 12:38:39.830 1.500E-01 0.500 F 0.292 -0.410 +06° 06' 15.90" 1.000E-01 0.500 F 0.097 0.038 17.9 V 0.70 0.17 o 691 0.83 Yes Yes
2013EK89 O C H 2013-04-01.41989 1.000E-05 13:21:00.450 1.500E-01 0.750 F 0.028 0.477 +03° 45' 51.00" 1.000E-01 0.750 F 0.148 0.350 20.9 V 0.70 0.20 o 691 0.80 Yes Yes
2013EK89 O C H 2013-04-01.42444 1.000E-05 13:21:00.490 1.500E-01 0.750 F 0.028 0.022 +03° 45' 57.30" 1.000E-01 0.750 F 0.148 -0.542 20.8 V 0.70 0.10 o 691 0.74 Yes Yes
2013EK89 O C H 2013-04-01.42864 1.000E-05 13:21:00.520 1.500E-01 0.750 F 0.028 -0.509 +03° 46' 04.30" 1.000E-01 0.750 F 0.148 -0.179 21.0 V 0.70 0.30 o 691 0.73 Yes Yes
2013EK89 O C 2013-04-01.44639 1.000E-05 13:21:00.740 1.500E-01 0.750 F 0.028 -1.441 +03° 46' 31.50" 1.000E-01 0.750 F 0.148 -1.007 20.7 V 0.70 0.00 o 691 2.38 Yes Yes
2013EK89 O C 2013-04-01.45323 1.000E-05 13:21:00.950 1.500E-01 0.750 F 0.028 0.034 +03° 46' 43.90" 1.000E-01 0.750 F 0.148 0.602 20.6 V 0.70 -0.10 o 691 0.82 Yes Yes
2013EK89 O C 2013-04-01.45888 1.000E-05 13:21:00.990 1.500E-01 0.750 F 0.028 -0.763 +03° 46' 51.20" 1.000E-01 0.750 F 0.148 -1.009 21.1 V 0.70 0.40 o 691 1.72 Yes Yes
2013EK89 O C H 2013-04-01.46808 1.000E-05 13:21:01.180 1.500E-01 0.750 F 0.028 -0.228 +03° 47' 07.10" 1.000E-01 0.750 F 0.148 0.389 21.1 V 0.70 0.40 o 691 0.61 Yes Yes
2013EK89 O C H 2013-04-01.47362 1.000E-05 13:21:01.240 1.500E-01 0.750 F 0.028 -0.743 +03° 47' 14.40" 1.000E-01 0.750 F 0.148 -1.039 21.2 V 0.70 0.50 o 691 1.73 Yes Yes
2013EK89 O C H 2013-04-01.47899 1.000E-05 13:21:01.370 1.500E-01 0.750 F 0.028 -0.184 +03° 47' 23.80" 1.000E-01 0.750 F 0.148 -0.097 21.0 V 0.70 0.30 o 691 0.28 Yes Yes
2013FW13 O C 2013-04-02.26385 1.000E-05 16:05:33.440 1.500E-01 0.500 F 0.035 -0.795 +35° 49' 29.10" 1.000E-01 0.500 F 0.163 0.383 20.3 V 0.70 -0.10 o 691 1.80 Yes Yes
2013FW13 O C 2013-04-02.26676 1.000E-05 16:05:32.610 1.500E-01 0.500 F 0.035 -0.272 +35° 49' 40.70" 1.000E-01 0.500 F 0.163 0.319 20.5 V 0.70 0.10 o 691 0.85 Yes Yes
2013FW13 O C 2013-04-02.26969 1.000E-05 16:05:31.660 1.500E-01 0.500 F 0.035 -1.124 +35° 49' 52.90" 1.000E-01 0.500 F 0.163 0.782 20.4 V 0.70 0.00 o 691 2.79 Yes Yes
2013FZ7 O C t 2013-04-02.28803 1.000E-05 12:32:38.740 1.500E-01 0.500 F 0.281 0.310 -11° 32' 10.70" 1.000E-01 0.500 F 0.043 -0.885 18.7 V 0.70 0.20 o 691 1.89 Yes Yes
2013FZ7 O C t 2013-04-02.29086 1.000E-05 12:32:36.840 1.500E-01 0.500 F 0.281 0.617 -11° 32' 17.10" 1.000E-01 0.500 F 0.043 -0.713 18.6 V 0.70 0.10 o 691 1.90 Yes Yes
2013FZ7 O C t 2013-04-02.29351 1.000E-05 12:32:35.050 1.500E-01 0.500 F 0.281 0.755 -11° 32' 22.90" 1.000E-01 0.500 F 0.043 -0.362 18.8 V 0.70 0.30 o 691 1.69 Yes Yes
2013FA8 O C 2013-04-02.30588 1.000E-05 12:51:28.580 1.500E-01 0.500 F 0.265 -0.052 +01° 02' 28.10" 1.000E-01 0.500 F 0.258 -0.130 19.7 V 0.70 0.46 o 691 0.28 Yes Yes
2013FA8 O C 2013-04-02.31007 1.000E-05 12:51:27.910 1.500E-01 0.500 F 0.265 0.035 +01° 02' 31.60" 1.000E-01 0.500 F 0.258 0.014 19.8 V 0.70 0.56 o 691 0.08 Yes Yes
2013FA8 O C 2013-04-02.31429 1.000E-05 12:51:27.220 1.500E-01 0.500 F 0.265 -0.108 +01° 02' 35.00" 1.000E-01 0.500 F 0.258 0.035 19.7 V 0.70 0.46 o 691 0.23 Yes Yes
2013GH O C H 2013-04-02.44369 1.000E-05 13:45:10.990 1.500E-01 0.500 F 0.204 0.143 -09° 48' 52.60" 1.000E-01 0.500 F 0.080 -0.673 o 691 1.44 Yes No
2013GH O C H 2013-04-02.44661 1.000E-05 13:45:10.870 1.500E-01 0.500 F 0.204 0.214 -09° 49' 05.40" 1.000E-01 0.500 F 0.080 0.359 o 691 0.88 Yes No
2013GH O C H 2013-04-02.44935 1.000E-05 13:45:10.760 1.500E-01 0.500 F 0.204 0.310 -09° 49' 18.00" 1.000E-01 0.500 F 0.080 0.737 o 691 1.68 Yes No
2013GF O C 2013-04-03.17069 1.000E-05 09:08:40.300 1.500E-01 0.500 F 0.038 -0.146 +31° 30' 08.20" 1.000E-01 0.500 F 0.391 -0.286 19.8 V 0.70 -0.43 o 691 0.65 Yes Yes
2013GF O C 2013-04-03.17332 1.000E-05 09:08:40.060 1.500E-01 0.500 F 0.038 -0.321 +31° 30' 01.20" 1.000E-01 0.500 F 0.391 -0.021 20.4 V 0.70 0.17 o 691 0.66 Yes Yes
2013GF O C 2013-04-03.17606 1.000E-05 09:08:39.840 1.500E-01 0.500 F 0.038 -0.120 +31° 29' 53.80" 1.000E-01 0.500 F 0.391 0.153 20.1 V 0.70 -0.13 o 691 0.40 Yes Yes
2013EC28 O C t 2013-04-03.18974 1.000E-05 09:48:27.310 1.500E-01 0.500 F 0.057 0.141 +21° 17' 33.60" 1.000E-01 0.500 F 0.250 -0.199 21.4 V 0.70 0.58 o 691 0.53 Yes Yes
2013EC28 O C t 2013-04-03.19392 1.000E-05 09:48:28.040 1.500E-01 0.500 F 0.057 0.305 +21° 17' 35.60" 1.000E-01 0.500 F 0.250 -0.310 20.8 V 0.70 -0.02 o 691 0.95 Yes Yes
2013FW13 O C H 2013-04-03.37761 1.000E-05 16:00:09.860 1.500E-01 0.500 F 0.070 0.076 +36° 58' 22.60" 1.000E-01 0.500 F 0.271 -1.080 o 691 2.20 Yes No
2013FW13 O C H 2013-04-03.38022 1.000E-05 16:00:09.090 1.500E-01 0.500 F 0.070 0.348 +36° 58' 32.10" 1.000E-01 0.500 F 0.271 -0.934 o 691 2.03 Yes No
2010CE55 O C 2013-04-03.48695 1.000E-05 15:51:15.360 1.500E-01 0.500 F 0.027 -0.208 -17° 37' 03.10" 1.000E-01 0.500 F 0.135 0.067 19.3 V 0.70 0.00 o 691 0.45 Yes Yes
2010CE55 O C 2013-04-03.48972 1.000E-05 15:51:16.440 1.500E-01 0.500 F 0.027 -0.403 -17° 37' 02.00" 1.000E-01 0.500 F 0.135 0.121 19.5 V 0.70 0.20 o 691 0.86 Yes Yes
2010CE55 O C 2013-04-03.49291 1.000E-05 15:51:17.580 1.500E-01 0.500 F 0.027 -2.121 -17° 37' 00.10" 1.000E-01 0.500 F 0.135 0.809 19.0 V 0.70 -0.30 o 691 4.43 No Yes
Apollo O C 2013-04-04.14712 1.000E-05 04:46:39.360 1.500E-01 0.500 F -0.102 -0.570 +27° 26' 50.50" 1.000E-01 0.500 F 0.240 -0.009 o 691 1.14 Yes No
2011BH10 O C 2013-04-04.14712 1.000E-05 04:49:07.910 1.500E-01 0.500 F -0.073 0.448 +27° 13' 58.00" 1.000E-01 0.500 F 0.265 -0.296 20.8 V 0.70 -0.04 o 691 1.09 Yes Yes
Apollo O C 2013-04-04.14977 1.000E-05 04:46:39.780 1.500E-01 0.500 F -0.102 -0.139 +27° 26' 51.50" 1.000E-01 0.500 F 0.240 0.447 o 691 0.94 Yes No
2011BH10 O C 2013-04-04.14977 1.000E-05 04:49:08.580 1.500E-01 0.500 F -0.073 -0.026 +27° 13' 58.00" 1.000E-01 0.500 F 0.265 -0.092 20.6 V 0.70 -0.24 o 691 0.19 Yes Yes
Apollo O C 2013-04-04.15290 1.000E-05 04:46:40.200 1.500E-01 0.500 F -0.102 -0.642 +27° 26' 52.20" 1.000E-01 0.500 F 0.240 0.506 o 691 1.64 Yes No
2011BH10 O C 2013-04-04.15290 1.000E-05 04:49:09.330 1.500E-01 0.500 F -0.073 -1.139 +27° 13' 58.00" 1.000E-01 0.500 F 0.265 0.150 20.8 V 0.70 -0.04 o 691 2.33 Yes Yes
2013FX13 O C t 2013-04-04.42598 1.000E-05 13:08:10.810 1.500E-01 0.500 F 0.233 -0.138 +30° 08' 49.50" 1.000E-01 0.500 F 0.130 -1.958 o 691 3.70 No No
2013FX13 O C t 2013-04-04.42998 1.000E-05 13:08:09.150 1.500E-01 0.500 F 0.233 -2.051 +30° 08' 34.40" 1.000E-01 0.500 F 0.130 -2.347 o 691 5.85 No No
2013FX13 O C t 2013-04-04.43400 1.000E-05 13:08:07.540 1.500E-01 0.500 F 0.233 -3.236 +30° 08' 19.20" 1.000E-01 0.500 F 0.130 -2.760 o 691 8.00 No No
2012RV16 O C 2013-04-07.14900 1.000E-05 11:33:49.570 1.500E-01 0.500 F 0.196 -0.199 +06° 18' 40.80" 1.000E-01 0.500 F 0.261 0.038 21.8 V 0.70 0.23 o 691 0.41 Yes Yes
2012RV16 O C 2013-04-07.17842 1.000E-05 11:33:47.400 1.500E-01 0.500 F 0.196 -0.324 +06° 18' 23.30" 1.000E-01 0.500 F 0.261 -0.088 21.5 V 0.70 -0.07 o 691 0.67 Yes Yes
2012RV16 O C 2013-04-07.20784 1.000E-05 11:33:45.210 1.500E-01 0.500 F 0.196 -0.677 +06° 18' 05.90" 1.000E-01 0.500 F 0.261 -0.092 21.7 V 0.70 0.13 o 691 1.37 Yes Yes
2013GC34 O C 2013-04-07.24942 1.000E-05 14:32:02.320 1.500E-01 0.500 F 0.120 0.521 -03° 51' 49.90" 1.000E-01 0.500 F 0.117 -1.776 19.4 V 0.70 -0.18 o 691 3.67 No Yes
2013GC34 O C 2013-04-07.26705 1.000E-05 14:32:05.020 1.500E-01 0.500 F 0.120 -0.088 -03° 50' 33.10" 1.000E-01 0.500 F 0.117 -0.160 19.6 V 0.70 0.02 o 691 0.37 Yes Yes
2013GC34 O C 2013-04-07.28468 1.000E-05 14:32:07.710 1.500E-01 0.500 F 0.120 -0.660 -03° 49' 18.00" 1.000E-01 0.500 F 0.117 -0.286 19.4 V 0.70 -0.18 o 691 1.45 Yes Yes

[1-200] [201-400] [401-600] [601-800] [801-1000] [1001-1200] [1201-1400] [1401-1600] [1601-1800] [1801-2000] [2001-2200] [2201-2400] [2401-2600] [2601-2800] [2801-3000] [3001-3200] [3201-3400] [3401-3600] [3601-3800] [3801-4000] [4001-4200] [4201-4400] [4401-4600] [4601-4800] [4801-5000] [5001-5200] [5201-5400] [5401-5600] [5601-5800] [5801-6000] [6001-6200] [6201-6400] [6401-6600] [6601-6800] [6801-7000] [7001-7200] [7201-7400] [7401-7600] [7601-7800] [7801-8000] [8001-8200] [8201-8400] [8401-8600] [8601-8800] [8801-9000] [9001-9200] [9201-9400] [9401-9600] [9601-9800] [9801-10000] [10001-10200] [10201-10400] [10401-10600] [10601-10800] [10801-11000] [11001-11200] [11201-11400] [11401-11600] [11601-11800] [11801-12000] [12001-12200] [12201-12400] [12401-12600] [12601-12800] [12801-13000] [13001-13200] [13201-13400] [13401-13600] [13601-13800] [13801-14000] [14001-14200] [14201-14400] [14401-14600] [14601-14800] [14801-15000] [15001-15200] [15201-15400] [15401-15600] [15601-15800] [15801-16000] [16001-16200] [16201-16400] [16401-16600] [16601-16800] [16801-17000] [17001-17200] [17201-17400] [17401-17600] [17601-17800] [17801-18000] [18001-18200] [18201-18400] [18401-18600] [18601-18800] [18801-19000] [19001-19200] [19201-19400] [19401-19600] [19601-19800] [19801-20000] [20001-20200] [20201-20400] [20401-20600] [20601-20800] [20801-21000] [21001-21200] [21201-21400] [21401-21600] [21601-21800] [21801-22000] [22001-22200] [22201-22400] [22401-22600] [22601-22800] [22801-23000] [23001-23200] [23201-23400] [23401-23600] [23601-23800] [23801-24000] [24001-24200] [24201-24400] [24401-24600] [24601-24800] [24801-25000] [25001-25200] [25201-25400] [25401-25600] [25601-25800] [25801-26000] [26001-26200] [26201-26400] [26401-26600] [26601-26800] [26801-27000] [27001-27200] [27201-27400] [27401-27600] [27601-27800] [27801-28000] [28001-28200] [28201-28400] [28401-28600] [28601-28800] [28801-29000] [29001-29200] [29201-29400] [29401-29600] [29601-29800] [29801-30000] [30001-30200] [30201-30400] [30401-30600] [30601-30800] [30801-31000] [31001-31200] [31201-31400] [31401-31600] [31601-31800] [31801-32000] [32001-32200] [32201-32400] [32401-32600] [32601-32800] [32801-33000] [33001-33200] [33201-33400] [33401-33600] [33601-33800] [33801-34000] [34001-34200] [34201-34400] [34401-34600] [34601-34800] [34801-35000] [35001-35200] [35201-35400] [35401-35600] [35601-35800] [35801-36000] [36001-36200] [36201-36400] [36401-36600] [36601-36800] [36801-37000] [37001-37200] [37201-37400] [37401-37600] [37601-37800] [37801-38000] [38001-38200] [38201-38400] [38401-38600] [38601-38800] [38801-39000] [39001-39200] [39201-39400] [39401-39600] [39601-39800] [39801-40000] [40001-40200] [40201-40400] [40401-40600] [40601-40800] [40801-41000] [41001-41200] [41201-41400] [41401-41600] [41601-41800] [41801-42000] [42001-42200] [42201-42400] [42401-42600] [42601-42800] [42801-43000] [43001-43200] [43201-43400] [43401-43600] [43601-43800] [43801-44000] [44001-44200] [44201-44400] [44401-44600] [44601-44800] [44801-45000] [45001-45200] [45201-45400] [45401-45600] [45601-45800] [45801-46000] [46001-46200] [46201-46400] [46401-46600] [46601-46800] [46801-47000] [47001-47200] [47201-47400] [47401-47600] [47601-47800] [47801-48000] [48001-48200] [48201-48400] [48401-48600] [48601-48800] [48801-49000] [49001-49200] [49201-49400] [49401-49600] [49601-49800] [49801-50000] [50001-50200] [50201-50400] [50401-50600] [50601-50741]